Aeroporto :
LOGIN :

Iscrizione | Disclaimer

   EN    FR    IT 

 










Sommario :    VFR   VFR Marginale   IFR   IFR Intensivo   IFR Molto Intensivo
Visibilità : 
Base nubi : 
>= 8 km
>= 3000ft
5 / 8 km
1000 / 3000 ft
1500m / 5 km
500 / 1000 ft
800 / 1500m
200 / 500 ft
< 800m
< 200 ft
Simboli :   Temporali  Nebbia  Neve Forte  Precipitazioni Forti  Vento > 20 kt
SIGMETs :   Varie  Temporali  Ghiacco  Turbolenza  Onda orograficha  Ceneri Vulcaniche






- Altitudine del aeroporto : 138 ft
- Codice IATA : BIO


LEBB - Bilbao

ULTIMO METAR :
  • 170000Z AUTO 19011KT 140V240 CAVOK 19/09 Q1020

METARs OBSOLETI :
  • 162330Z AUTO 20008G22KT 130V280 CAVOK 19/09 Q1020
  • 162300Z AUTO 19010KT 140V240 CAVOK 19/09 Q1020
  • 162230Z 20012G25KT 110V250 CAVOK 19/09 Q1020 NOSIG
  • 162200Z 20009G23KT 150V260 CAVOK 19/09 Q1020 NOSIG

TAF TAF LEBB
Valido dal 17 a 00 ore il 18 a 00 ore UTC


162300Z 1700/1724 19012KT 9999 BKN040 TX18/1700Z TN07/1800Z
PROB40
TEMPO 1700/1703 19015G25KT
BECMG 1700/1704 31010KT
TEMPO 1704/1721 31015G25KT
PROB40
TEMPO 1703/1706 1500 RA BCFG BKN005
TEMPO 1703/1712 3000 RA BKN010 BKN014
PROB40
TEMPO 1712/1715 SHRA SCT030TCU



MetMap, La meteo Aeronautica in un colpo d'occhio ! - Copyright ORBIFLY Dicembre 2007 - Disclaimer

ORBIFLY MET'MAP TEAM :

Programmazione e sviluppo : Alexandra Zaïnal
Concezione : Baudouin d'Aumeries
Aiuto per la programmazione : Marc-Olivier Méhu
Supporto tecnico e logistico : Manuel Goepfert
Aiuto per la traduzione : Arnaldo La Scala

Contatto : metmap@orbifly.com




FONTI E CREDITI :

   NOAA